Time;durP1;ratioP1;P1;durP2;ratioP2;P2;SDS_P1;SDS_P2;PMS_P1;PMS_P2;Temp;Humidity;BMP_temperature;BMP_pressure;BME280_temperature;BME280_humidity;BME280_pressure;Samples;Min_cycle;Max_cycle;Signal;HPM_P1;HPM_P2
2021/05/02 00:00:34;;;;;;;;;;;;;;;16.37;46.66;97947.84;5053471;28;19931;-71
2021/05/02 00:03:00;;;;;;;;;;;;;;;16.37;46.91;97945.06;5034718;28;19920;-69
2021/05/02 00:05:26;;;;;;;;;;;;;;;16.36;46.71;97942.72;5035885;28;19923;-68
2021/05/02 00:07:51;;;;;;;;;;;;;;;16.38;46.80;97948.63;5033668;28;20047;-71
2021/05/02 00:10:16;;;;;;;;;;;;;;;16.36;46.93;97948.28;5036627;28;20386;-69
2021/05/02 00:12:42;;;;;;;;;;;;;;;16.37;46.80;97947.06;5035502;28;20440;-71
2021/05/02 00:15:08;;;;;;;;;;;;;;;16.37;46.68;97939.47;5038413;28;19920;-70
2021/05/02 00:17:34;;;;;;;;;;;;;;;16.36;46.83;97939.91;5038088;28;20003;-71
2021/05/02 00:19:59;;;;;;;;;;;;;;;16.36;46.75;97945.50;5037697;28;20011;-71
2021/05/02 00:22:24;;;;;;;;;;;;;;;16.35;46.72;97947.50;5054442;28;20337;-70
2021/05/02 00:24:49;;;;;;;;;;;;;;;16.34;46.89;97951.50;5036696;28;19935;-71
2021/05/02 00:27:15;;;;;;;;;;;;;;;16.34;46.77;97961.91;5053758;28;19964;-68
2021/05/02 00:29:40;;;;;;;;;;;;;;;16.36;46.89;97957.44;5034829;28;19928;-70
2021/05/02 00:32:06;;;;;;;;;;;;;;;16.35;46.86;97964.25;5035477;28;19920;-71
2021/05/02 00:34:31;;;;;;;;;;;;;;;16.36;46.97;97959.47;5035646;28;19975;-70
2021/05/02 00:36:56;;;;;;;;;;;;;;;16.35;46.95;97957.88;5034061;28;19917;-70
2021/05/02 00:39:21;;;;;;;;;;;;;;;16.33;46.93;97949.94;5035714;28;19917;-70
2021/05/02 00:41:47;;;;;;;;;;;;;;;16.33;46.96;97949.94;5039673;28;19920;-71
2021/05/02 00:44:25;;;;;;;;;;;;;;;16.32;47.04;97956.75;5039389;28;19912;-70
2021/05/02 00:46:52;;;;;;;;;;;;;;;16.33;47.06;97957.53;5039173;28;20270;-70
2021/05/02 00:49:24;;;;;;;;;;;;;;;16.34;46.92;97967.47;5036201;28;19970;-70
2021/05/02 00:51:57;;;;;;;;;;;;;;;16.33;46.89;97960.31;5054628;28;20349;-70
2021/05/02 00:54:26;;;;;;;;;;;;;;;16.34;46.98;97962.69;5041041;28;19995;-70
2021/05/02 00:57:01;;;;;;;;;;;;;;;16.33;46.85;97963.13;5038567;28;19964;-70
2021/05/02 00:59:43;;;;;;;;;;;;;;;16.31;46.95;97957.97;5041636;28;20003;-70
2021/05/02 01:02:09;;;;;;;;;;;;;;;16.31;47.01;97971.13;5042387;28;19928;-70
2021/05/02 01:04:34;;;;;;;;;;;;;;;16.31;46.90;97962.75;5068875;28;20383;-70
2021/05/02 01:07:00;;;;;;;;;;;;;;;16.31;46.93;97965.56;5051310;28;19986;-70
2021/05/02 01:09:26;;;;;;;;;;;;;;;16.32;46.97;97958.75;5071295;28;19919;-70
2021/05/02 01:11:51;;;;;;;;;;;;;;;16.32;47.00;97961.53;5052783;28;19921;-70
2021/05/02 01:14:18;;;;;;;;;;;;;;;16.30;47.01;97961.94;5049057;28;20019;-70
2021/05/02 01:16:44;;;;;;;;;;;;;;;16.31;46.90;97965.56;5037279;28;19939;-70
2021/05/02 01:19:10;;;;;;;;;;;;;;;16.31;46.90;97968.34;5034054;28;20314;-70
2021/05/02 01:21:39;;;;;;;;;;;;;;;16.31;47.04;97974.72;5034399;28;19913;-69
2021/05/02 01:24:06;;;;;;;;;;;;;;;16.29;47.05;97977.13;5052910;28;19916;-70
2021/05/02 01:26:31;;;;;;;;;;;;;;;16.28;46.96;97967.19;5052987;28;19947;-70
2021/05/02 01:28:56;;;;;;;;;;;;;;;16.28;46.97;97973.53;5050677;28;19924;-70
2021/05/02 01:31:22;;;;;;;;;;;;;;;16.28;46.93;97970.75;5054019;28;19921;-69
2021/05/02 01:33:47;;;;;;;;;;;;;;;16.29;47.01;97974.34;5052723;28;20016;-68
2021/05/02 01:36:13;;;;;;;;;;;;;;;16.28;47.10;97975.56;5034302;28;19952;-70
2021/05/02 01:38:38;;;;;;;;;;;;;;;16.28;47.17;97972.75;5047522;28;20011;-69
2021/05/02 01:41:03;;;;;;;;;;;;;;;16.29;47.09;97974.34;5033521;28;19956;-70
2021/05/02 01:43:28;;;;;;;;;;;;;;;16.29;47.06;97977.13;5033698;28;20120;-70
2021/05/02 01:45:55;;;;;;;;;;;;;;;16.28;47.00;97976.34;5033644;28;20011;-69
2021/05/02 01:48:20;;;;;;;;;;;;;;;16.27;46.98;97979.56;5053349;28;19916;-70
2021/05/02 01:50:46;;;;;;;;;;;;;;;16.27;47.15;97971.19;5021823;28;19974;-70
2021/05/02 01:53:12;;;;;;;;;;;;;;;16.26;46.98;97980.78;5036247;28;19912;-70
2021/05/02 01:55:38;;;;;;;;;;;;;;;16.26;47.15;97986.38;5042587;28;19979;-70
2021/05/02 01:58:03;;;;;;;;;;;;;;;16.26;47.05;97984.34;5033246;28;19952;-70
2021/05/02 02:00:41;;;;;;;;;;;;;;;16.26;46.99;97983.56;5032722;28;19913;-69
2021/05/02 02:03:07;;;;;;;;;;;;;;;16.25;47.18;97982.00;5035948;28;20336;-70
2021/05/02 02:05:32;;;;;;;;;;;;;;;16.25;47.18;97988.38;5067793;28;19917;-70
2021/05/02 02:07:57;;;;;;;;;;;;;;;16.26;47.15;97991.94;5046248;28;19921;-70
2021/05/02 02:10:25;;;;;;;;;;;;;;;16.25;46.94;97993.16;5070002;28;19917;-69
2021/05/02 02:12:50;;;;;;;;;;;;;;;16.24;47.24;97991.59;5038622;28;20574;-70
2021/05/02 02:15:15;;;;;;;;;;;;;;;16.24;47.19;97986.81;5037221;28;20019;-70
2021/05/02 02:17:44;;;;;;;;;;;;;;;16.24;47.18;97994.38;5046498;28;19963;-69
2021/05/02 02:20:09;;;;;;;;;;;;;;;16.22;47.09;97983.66;5044508;28;19971;-68
2021/05/02 02:22:38;;;;;;;;;;;;;;;16.23;47.29;97993.59;5046278;28;19913;-69
2021/05/02 02:25:04;;;;;;;;;;;;;;;16.22;47.18;98000.41;5039323;28;19951;-69
2021/05/02 02:27:30;;;;;;;;;;;;;;;16.22;47.11;98008.00;5032068;28;19963;-69
2021/05/02 02:29:59;;;;;;;;;;;;;;;16.21;47.10;98009.19;5045852;28;20024;-70
2021/05/02 02:32:24;;;;;;;;;;;;;;;16.22;47.01;98010.78;5044384;28;19921;-70
2021/05/02 02:34:49;;;;;;;;;;;;;;;16.20;47.03;98011.19;5038515;28;19970;-69
2021/05/02 02:37:19;;;;;;;;;;;;;;;16.21;47.17;98009.97;5040483;28;19915;-70
2021/05/02 02:39:48;;;;;;;;;;;;;;;16.21;47.21;98017.56;5033854;28;19913;-70
2021/05/02 02:42:13;;;;;;;;;;;;;;;16.20;47.09;98013.97;5035185;28;19924;-70
2021/05/02 02:44:48;;;;;;;;;;;;;;;16.19;47.13;98020.78;5031849;28;19916;-71
2021/05/02 02:47:16;;;;;;;;;;;;;;;16.20;46.96;98019.56;5044532;28;19969;-70
2021/05/02 02:49:41;;;;;;;;;;;;;;;16.21;47.04;98023.13;5062461;28;19919;-70
2021/05/02 02:52:06;;;;;;;;;;;;;;;16.19;47.02;98026.34;5023724;28;20292;-70
2021/05/02 02:54:31;;;;;;;;;;;;;;;16.18;47.06;98026.78;5040861;28;19971;-70
2021/05/02 02:56:57;;;;;;;;;;;;;;;16.19;47.18;98028.34;5040136;28;19917;-70
2021/05/02 02:59:25;;;;;;;;;;;;;;;16.19;47.19;98031.94;5042734;28;19928;-70
2021/05/02 03:01:51;;;;;;;;;;;;;;;16.17;47.25;98033.59;5058576;28;20038;-70
2021/05/02 03:04:17;;;;;;;;;;;;;;;16.18;47.17;98029.56;5037948;28;20027;-70
2021/05/02 03:06:42;;;;;;;;;;;;;;;16.18;47.15;98037.94;5057848;28;19957;-68
2021/05/02 03:09:07;;;;;;;;;;;;;;;16.18;47.31;98032.38;5026750;28;19920;-70
2021/05/02 03:11:32;;;;;;;;;;;;;;;16.17;47.29;98037.16;5042780;28;19917;-69
2021/05/02 03:13:58;;;;;;;;;;;;;;;16.16;47.20;98030.00;5038099;28;19939;-70
2021/05/02 03:16:23;;;;;;;;;;;;;;;16.15;47.13;98036.81;5044456;28;20431;-70
2021/05/02 03:18:54;;;;;;;;;;;;;;;16.14;47.13;98040.03;5056698;28;19927;-69
2021/05/02 03:21:22;;;;;;;;;;;;;;;16.14;47.15;98031.66;5060029;28;19975;-70
2021/05/02 03:23:47;;;;;;;;;;;;;;;16.16;47.23;98040.38;5039375;28;19927;-70
2021/05/02 03:26:12;;;;;;;;;;;;;;;16.15;47.20;98038.81;5038163;28;19916;-71
2021/05/02 03:28:53;;;;;;;;;;;;;;;16.14;47.24;98038.03;5056972;28;19928;-70
2021/05/02 03:31:22;;;;;;;;;;;;;;;16.15;47.07;98036.81;5043256;28;19943;-69
2021/05/02 03:33:48;;;;;;;;;;;;;;;16.14;47.36;98049.19;5055412;28;20353;-70
2021/05/02 03:36:25;;;;;;;;;;;;;;;16.14;47.22;98046.41;5044689;28;19948;-69
2021/05/02 03:38:51;;;;;;;;;;;;;;;16.14;47.25;98053.97;5041952;28;19919;-69
2021/05/02 03:41:16;;;;;;;;;;;;;;;16.14;47.16;98054.78;5021004;28;19918;-70
2021/05/02 03:43:42;;;;;;;;;;;;;;;16.12;47.24;98053.59;5036405;28;19916;-70
2021/05/02 03:46:22;;;;;;;;;;;;;;;16.13;47.15;98055.19;5030516;28;20369;-69
2021/05/02 03:48:48;;;;;;;;;;;;;;;16.12;47.42;98059.19;5041325;28;19917;-70
2021/05/02 03:51:13;;;;;;;;;;;;;;;16.10;47.24;98059.63;5057779;28;20107;-70
2021/05/02 03:53:38;;;;;;;;;;;;;;;16.11;47.15;98061.19;5036484;28;19916;-70
2021/05/02 03:56:03;;;;;;;;;;;;;;;16.11;47.37;98057.59;5055949;28;19913;-70
2021/05/02 03:58:29;;;;;;;;;;;;;;;16.09;47.40;98058.03;5058598;28;19913;-70
2021/05/02 04:00:54;;;;;;;;;;;;;;;16.11;47.25;98063.97;5038878;28;19931;-69
2021/05/02 04:03:19;;;;;;;;;;;;;;;16.12;47.15;98061.97;5040733;28;19954;-70
2021/05/02 04:05:44;;;;;;;;;;;;;;;16.10;47.44;98065.19;5038862;28;19946;-68
2021/05/02 04:08:10;;;;;;;;;;;;;;;16.08;47.31;98070.41;5022382;28;20381;-70
2021/05/02 04:10:35;;;;;;;;;;;;;;;16.09;47.48;98069.19;5038708;28;20305;-70
2021/05/02 04:13:00;;;;;;;;;;;;;;;16.08;47.32;98064.06;5055551;28;19917;-70
2021/05/02 04:15:25;;;;;;;;;;;;;;;16.08;47.46;98070.41;5055836;28;20000;-70
2021/05/02 04:17:51;;;;;;;;;;;;;;;16.08;47.19;98072.41;5043112;28;19960;-71
2021/05/02 04:20:16;;;;;;;;;;;;;;;16.08;47.33;98078.78;5059199;28;19917;-70
2021/05/02 04:22:41;;;;;;;;;;;;;;;16.09;47.23;98085.16;5055037;28;20281;-70
2021/05/02 04:25:06;;;;;;;;;;;;;;;16.08;47.30;98081.59;5041020;28;19917;-69
2021/05/02 04:27:32;;;;;;;;;;;;;;;16.07;47.40;98082.00;5063102;28;19928;-70
2021/05/02 04:29:57;;;;;;;;;;;;;;;16.07;47.17;98082.00;5036864;28;19920;-70
2021/05/02 04:32:23;;;;;;;;;;;;;;;16.06;47.40;98084.00;5042334;28;20001;-70
2021/05/02 04:34:48;;;;;;;;;;;;;;;16.06;47.39;98099.97;5042772;28;19916;-69
2021/05/02 04:37:13;;;;;;;;;;;;;;;16.07;47.31;98093.16;5041852;28;19916;-69
2021/05/02 04:39:39;;;;;;;;;;;;;;;16.05;47.38;98093.56;5038058;28;19916;-69
2021/05/02 04:42:04;;;;;;;;;;;;;;;16.06;47.54;98091.59;5053451;28;19917;-69
2021/05/02 04:44:29;;;;;;;;;;;;;;;16.05;47.34;98087.19;5036154;28;20380;-69
2021/05/02 04:46:54;;;;;;;;;;;;;;;16.06;47.39;98099.97;5044806;28;20415;-69
2021/05/02 04:49:20;;;;;;;;;;;;;;;16.05;47.37;98098.38;5051665;28;19917;-70
2021/05/02 04:51:45;;;;;;;;;;;;;;;16.05;47.37;98101.16;5042939;28;20024;-70
2021/05/02 04:54:10;;;;;;;;;;;;;;;16.04;47.35;98105.94;5037330;28;20372;-70
2021/05/02 04:56:36;;;;;;;;;;;;;;;16.04;47.36;98110.75;5056762;28;20004;-70
2021/05/02 04:59:01;;;;;;;;;;;;;;;16.05;47.24;98107.53;5033385;28;19916;-71
2021/05/02 05:01:26;;;;;;;;;;;;;;;16.06;47.51;98109.13;5056716;28;19951;-70
2021/05/02 05:03:53;;;;;;;;;;;;;;;16.05;47.40;98110.31;5031221;28;19921;-70
2021/05/02 05:06:18;;;;;;;;;;;;;;;16.05;47.43;98115.09;5037629;28;19923;-69
2021/05/02 05:08:44;;;;;;;;;;;;;;;16.05;47.50;98117.91;5041533;28;19920;-71
2021/05/02 05:11:09;;;;;;;;;;;;;;;16.04;47.44;98119.13;5058132;28;19974;-69
2021/05/02 05:13:34;;;;;;;;;;;;;;;16.04;47.42;98122.69;5058580;28;19958;-70
2021/05/02 05:16:00;;;;;;;;;;;;;;;16.03;47.35;98126.69;5057618;28;19921;-70
2021/05/02 05:18:25;;;;;;;;;;;;;;;16.03;47.43;98129.50;5034873;28;19928;-69
2021/05/02 05:20:50;;;;;;;;;;;;;;;16.04;47.38;98138.66;5035788;28;19920;-70
2021/05/02 05:23:16;;;;;;;;;;;;;;;16.05;47.42;98129.84;5062201;28;20017;-70
2021/05/02 05:25:41;;;;;;;;;;;;;;;16.04;47.42;98127.50;5019153;28;20345;-70
2021/05/02 05:28:06;;;;;;;;;;;;;;;16.04;47.67;98127.50;5043512;28;20150;-70
2021/05/02 05:30:32;;;;;;;;;;;;;;;16.04;47.43;98135.84;5044774;28;20406;-70
2021/05/02 05:33:01;;;;;;;;;;;;;;;16.03;47.44;98140.66;5059757;28;19917;-69
2021/05/02 05:35:26;;;;;;;;;;;;;;;16.07;47.53;98143.41;5061847;28;19952;-70
2021/05/02 05:37:51;;;;;;;;;;;;;;;16.07;47.38;98137.81;5060816;28;20402;-70
2021/05/02 05:40:18;;;;;;;;;;;;;;;16.05;47.53;98154.19;5062984;28;19928;-70
2021/05/02 05:42:43;;;;;;;;;;;;;;;16.05;47.62;98152.16;5043363;28;19927;-71
2021/05/02 05:45:09;;;;;;;;;;;;;;;16.03;47.54;98151.81;5024799;28;19988;-70
2021/05/02 05:47:34;;;;;;;;;;;;;;;16.01;47.73;98152.25;5068572;28;19974;-70
2021/05/02 05:49:59;;;;;;;;;;;;;;;16.01;47.72;98159.81;5044697;28;19924;-71
2021/05/02 05:52:24;;;;;;;;;;;;;;;16.02;47.67;98161.41;5030990;28;19944;-70
2021/05/02 05:54:51;;;;;;;;;;;;;;;16.02;47.82;98159.41;5021030;28;20387;-70
2021/05/02 05:57:16;;;;;;;;;;;;;;;16.01;47.92;98159.81;5043185;28;19920;-70
2021/05/02 05:59:42;;;;;;;;;;;;;;;16.01;47.82;98157.03;5057888;28;19965;-70
2021/05/02 06:02:07;;;;;;;;;;;;;;;16.01;47.86;98159.81;5043387;28;19931;-70
2021/05/02 06:04:32;;;;;;;;;;;;;;;16.01;47.66;98171.78;5038433;28;19923;-70
2021/05/02 06:06:57;;;;;;;;;;;;;;;16.02;47.66;98180.94;5055705;28;20004;-70
2021/05/02 06:09:23;;;;;;;;;;;;;;;16.02;47.84;98175.34;5039231;28;20014;-70
2021/05/02 06:11:48;;;;;;;;;;;;;;;16.07;47.57;98191.63;5060149;28;19964;-70
2021/05/02 06:14:13;;;;;;;;;;;;;;;16.06;47.60;98192.06;5038535;28;19919;-70
2021/05/02 06:16:38;;;;;;;;;;;;;;;16.05;47.56;98187.66;5061669;28;20395;-70
2021/05/02 06:19:04;;;;;;;;;;;;;;;16.09;47.66;98191.19;5067399;28;20349;-70
2021/05/02 06:21:29;;;;;;;;;;;;;;;16.08;47.56;98198.78;5037350;28;19928;-71
2021/05/02 06:23:54;;;;;;;;;;;;;;;16.08;47.41;98192.41;5021419;28;19917;-70
2021/05/02 06:26:19;;;;;;;;;;;;;;;16.06;47.48;98198.44;5032265;28;20377;-70
2021/05/02 06:28:45;;;;;;;;;;;;;;;16.05;47.51;98194.03;5035238;28;19925;-70
2021/05/02 06:31:11;;;;;;;;;;;;;;;16.06;47.57;98192.06;5056657;28;20344;-70
2021/05/02 06:33:36;;;;;;;;;;;;;;;16.04;47.68;98195.25;5055790;28;19998;-70
2021/05/02 06:36:02;;;;;;;;;;;;;;;16.06;47.54;98201.22;5035162;28;20335;-70
2021/05/02 06:38:27;;;;;;;;;;;;;;;16.05;47.84;98204.41;5045092;28;19920;-70
2021/05/02 06:40:52;;;;;;;;;;;;;;;16.06;47.97;98200.44;5044466;28;19912;-70
2021/05/02 06:43:17;;;;;;;;;;;;;;;16.05;47.77;98201.63;5042369;28;19924;-70
2021/05/02 06:45:42;;;;;;;;;;;;;;;16.05;47.78;98207.19;5061989;28;19916;-70
2021/05/02 06:48:08;;;;;;;;;;;;;;;16.06;47.77;98206.78;5040598;28;19927;-70
2021/05/02 06:50:33;;;;;;;;;;;;;;;16.08;47.62;98211.94;5021040;28;19920;-70
2021/05/02 06:52:59;;;;;;;;;;;;;;;16.07;47.46;98216.75;5052361;28;19913;-70
2021/05/02 06:55:24;;;;;;;;;;;;;;;16.09;47.43;98216.31;5033306;28;19916;-70
2021/05/02 06:57:49;;;;;;;;;;;;;;;16.07;47.58;98221.53;5066271;28;19948;-70
2021/05/02 07:00:15;;;;;;;;;;;;;;;16.07;47.38;98219.53;5051804;28;19966;-70
2021/05/02 07:02:40;;;;;;;;;;;;;;;16.05;47.55;98219.16;5041473;28;19912;-70
2021/05/02 07:05:05;;;;;;;;;;;;;;;16.07;47.52;98227.91;5055641;28;20412;-70
2021/05/02 07:07:31;;;;;;;;;;;;;;;16.09;47.28;98222.69;5053942;28;20357;-71
2021/05/02 07:09:56;;;;;;;;;;;;;;;16.09;47.45;98231.06;5061427;28;19917;-70
2021/05/02 07:12:23;;;;;;;;;;;;;;;16.10;47.26;98232.63;5052003;28;19970;-71
2021/05/02 07:14:48;;;;;;;;;;;;;;;16.11;47.50;98220.25;5070640;28;19924;-70
2021/05/02 07:17:14;;;;;;;;;;;;;;;16.11;47.44;98236.22;5034024;28;19917;-70
2021/05/02 07:19:39;;;;;;;;;;;;;;;16.11;47.44;98225.06;5034922;28;20015;-69
2021/05/02 07:22:06;;;;;;;;;;;;;;;16.09;47.60;98239.44;5033893;28;20518;-70
2021/05/02 07:24:31;;;;;;;;;;;;;;;16.09;47.63;98242.22;5053049;28;19927;-72
2021/05/02 07:26:57;;;;;;;;;;;;;;;16.11;47.28;98239.00;5034817;28;19920;-70
2021/05/02 07:29:22;;;;;;;;;;;;;;;16.12;47.33;98240.59;5042539;28;19981;-70
2021/05/02 07:31:47;;;;;;;;;;;;;;;16.11;47.43;98248.16;5035515;28;19943;-70
2021/05/02 07:34:12;;;;;;;;;;;;;;;16.13;47.34;98250.53;5044715;28;19913;-70
2021/05/02 07:36:37;;;;;;;;;;;;;;;16.15;47.27;98251.72;5033221;28;19974;-69
2021/05/02 07:39:04;;;;;;;;;;;;;;;16.16;47.49;98249.72;5042570;28;19939;-71
2021/05/02 07:41:29;;;;;;;;;;;;;;;16.14;47.50;98266.88;5037755;28;19991;-71
2021/05/02 07:43:55;;;;;;;;;;;;;;;16.14;47.45;98261.31;5034429;28;20616;-70
2021/05/02 07:46:20;;;;;;;;;;;;;;;16.12;47.30;98266.50;5033944;28;20034;-71
2021/05/02 07:48:45;;;;;;;;;;;;;;;16.11;47.18;98262.13;5058723;28;19970;-71
2021/05/02 07:51:12;;;;;;;;;;;;;;;16.12;47.16;98272.06;5060999;28;19919;-70
2021/05/02 07:53:37;;;;;;;;;;;;;;;16.10;46.46;98266.13;5063407;28;19916;-70
2021/05/02 07:56:03;;;;;;;;;;;;;;;16.08;46.63;98262.97;5057383;28;19913;-70
2021/05/02 07:58:28;;;;;;;;;;;;;;;16.11;47.07;98261.34;5039342;28;20002;-70
2021/05/02 08:00:53;;;;;;;;;;;;;;;16.11;46.98;98272.50;5037787;28;20572;-70
2021/05/02 08:03:19;;;;;;;;;;;;;;;16.12;46.80;98274.06;5041821;28;20020;-70
2021/05/02 08:05:44;;;;;;;;;;;;;;;16.12;46.99;98274.84;5031521;28;20352;-70
2021/05/02 08:08:10;;;;;;;;;;;;;;;16.13;47.00;98281.22;5053192;28;20290;-70
2021/05/02 08:10:36;;;;;;;;;;;;;;;16.14;47.13;98288.41;5052709;28;19996;-70
2021/05/02 08:13:01;;;;;;;;;;;;;;;16.13;47.34;98284.81;5053890;28;20365;-71
2021/05/02 08:15:27;;;;;;;;;;;;;;;16.13;47.35;98295.97;5036563;28;19917;-70
2021/05/02 08:17:52;;;;;;;;;;;;;;;16.11;47.39;98295.59;5031551;28;20017;-69
2021/05/02 08:20:18;;;;;;;;;;;;;;;16.12;47.26;98293.59;5036885;28;19974;-70
2021/05/02 08:22:43;;;;;;;;;;;;;;;16.13;47.23;98295.97;5037307;28;19960;-70
2021/05/02 08:25:08;;;;;;;;;;;;;;;16.14;47.29;98302.38;5056567;28;19971;-70
2021/05/02 08:27:34;;;;;;;;;;;;;;;16.15;47.14;98304.75;5035633;28;19917;-70
2021/05/02 08:29:59;;;;;;;;;;;;;;;16.16;47.14;98309.09;5055017;28;19928;-70
2021/05/02 08:32:24;;;;;;;;;;;;;;;16.16;47.41;98309.09;5035181;28;19921;-70
2021/05/02 08:34:50;;;;;;;;;;;;;;;16.17;47.06;98313.47;5033523;28;19919;-71
2021/05/02 08:37:15;;;;;;;;;;;;;;;16.16;47.14;98316.69;5055547;28;19924;-70
2021/05/02 08:39:40;;;;;;;;;;;;;;;16.19;46.94;98313.84;5033246;28;19924;-70
2021/05/02 08:42:05;;;;;;;;;;;;;;;16.19;47.02;98308.25;5053592;28;19913;-70
2021/05/02 08:44:31;;;;;;;;;;;;;;;16.21;47.21;98317.00;5037595;28;19917;-70
2021/05/02 08:46:56;;;;;;;;;;;;;;;16.21;47.23;98322.56;5033495;28;19932;-70
2021/05/02 08:49:21;;;;;;;;;;;;;;;16.20;47.35;98326.59;5037560;28;20708;-70
2021/05/02 08:51:47;;;;;;;;;;;;;;;16.23;47.04;98316.59;5036309;28;19917;-70
2021/05/02 08:54:12;;;;;;;;;;;;;;;16.23;47.11;98317.38;5040205;28;19913;-71
2021/05/02 08:56:38;;;;;;;;;;;;;;;16.24;47.31;98321.75;5038926;28;20312;-69
2021/05/02 08:59:03;;;;;;;;;;;;;;;16.24;47.03;98324.53;5056123;28;19921;-70
2021/05/02 09:01:28;;;;;;;;;;;;;;;16.24;47.10;98321.75;5037743;28;19999;-71
2021/05/02 09:03:54;;;;;;;;;;;;;;;16.27;46.92;98320.13;5039193;28;19939;-70
2021/05/02 09:06:28;;;;;;;;;;;;;;;16.28;47.30;98321.69;5059683;28;20030;-72
2021/05/02 09:08:56;;;;;;;;;;;;;;;16.27;47.44;98317.31;5032978;28;20273;-71
2021/05/02 09:11:33;;;;;;;;;;;;;;;16.28;47.23;98318.91;5038995;28;19912;-71
2021/05/02 09:14:00;;;;;;;;;;;;;;;16.29;47.21;98321.28;5054362;28;20465;-70
2021/05/02 09:16:26;;;;;;;;;;;;;;;16.30;47.13;98322.06;5035739;28;20457;-71
2021/05/02 09:18:51;;;;;;;;;;;;;;;16.31;47.50;98323.66;5035531;28;19917;-69
2021/05/02 09:21:17;;;;;;;;;;;;;;;16.32;47.10;98325.25;5035809;28;19987;-71
2021/05/02 09:23:42;;;;;;;;;;;;;;;16.34;47.35;98316.44;5064020;28;19966;-71
2021/05/02 09:26:08;;;;;;;;;;;;;;;16.33;47.24;98318.44;5035647;28;19928;-71
2021/05/02 09:28:46;;;;;;;;;;;;;;;16.35;47.25;98327.19;5038900;28;20019;-70
2021/05/02 09:31:13;;;;;;;;;;;;;;;16.35;47.17;98324.38;5062197;28;20215;-70
2021/05/02 09:33:39;;;;;;;;;;;;;;;16.37;47.22;98329.56;5039581;28;19927;-71
2021/05/02 09:36:08;;;;;;;;;;;;;;;16.37;47.23;98333.13;5036196;28;19920;-71
2021/05/02 09:38:33;;;;;;;;;;;;;;;16.36;46.94;98323.19;5060687;28;19920;-71
2021/05/02 09:41:00;;;;;;;;;;;;;;;16.36;47.12;98323.19;5052441;28;19958;-71
2021/05/02 09:43:29;;;;;;;;;;;;;;;16.37;47.21;98323.97;5037385;28;19912;-71
2021/05/02 09:49:00;;;;;;;;;;;;;;;16.38;47.11;98329.13;5051778;28;19970;-70
2021/05/02 09:51:26;;;;;;;;;;;;;;;16.36;46.88;98334.34;5033684;28;19999;-71
2021/05/02 09:54:02;;;;;;;;;;;;;;;16.36;46.96;98334.34;5056456;28;20021;-70
2021/05/02 09:56:32;;;;;;;;;;;;;;;16.37;47.07;98341.50;5023830;28;19979;-70
2021/05/02 09:58:57;;;;;;;;;;;;;;;16.39;46.79;98343.91;5052279;28;20341;-71
2021/05/02 10:01:23;;;;;;;;;;;;;;;16.39;46.77;98344.69;5038676;28;20414;-71
2021/05/02 10:03:52;;;;;;;;;;;;;;;16.39;46.77;98347.47;5036203;28;21554;-71
2021/05/02 10:06:27;;;;;;;;;;;;;;;16.41;46.49;98345.06;5046549;28;20288;-71
2021/05/02 10:08:52;;;;;;;;;;;;;;;16.42;46.57;98359.81;5059234;28;20420;-71
2021/05/02 10:11:18;;;;;;;;;;;;;;;16.42;46.55;98349.44;5037838;28;19943;-71
2021/05/02 10:13:43;;;;;;;;;;;;;;;16.42;46.43;98346.63;5047362;28;19916;-69
2021/05/02 10:16:10;;;;;;;;;;;;;;;16.43;46.34;98351.00;5041179;28;20778;-71
2021/05/02 10:18:35;;;;;;;;;;;;;;;16.44;46.70;98352.56;5051654;28;19920;-71
2021/05/02 10:21:01;;;;;;;;;;;;;;;16.46;46.56;98350.16;5045846;28;20578;-71
2021/05/02 10:23:27;;;;;;;;;;;;;;;16.44;46.69;98347.00;5045923;28;20625;-70
2021/05/02 10:25:55;;;;;;;;;;;;;;;16.50;46.58;98353.69;5060683;28;19927;-71
2021/05/02 10:28:22;;;;;;;;;;;;;;;16.48;46.71;98355.34;5061456;28;19916;-72
2021/05/02 10:30:49;;;;;;;;;;;;;;;16.50;46.77;98369.66;5039430;28;19927;-71
2021/05/02 10:33:14;;;;;;;;;;;;;;;16.47;46.53;98368.50;5029770;28;19954;-71
2021/05/02 10:35:43;;;;;;;;;;;;;;;16.47;46.70;98364.94;5032358;28;20273;-70
2021/05/02 10:38:10;;;;;;;;;;;;;;;16.47;46.70;98362.13;5033799;28;19920;-70
2021/05/02 10:40:36;;;;;;;;;;;;;;;16.48;46.63;98367.28;5056296;28;20292;-71
2021/05/02 10:43:04;;;;;;;;;;;;;;;16.49;46.72;98368.09;5038103;28;19970;-71
2021/05/02 10:45:45;;;;;;;;;;;;;;;16.48;46.64;98377.69;5042222;28;20416;-71
2021/05/02 10:48:14;;;;;;;;;;;;;;;16.49;46.73;98370.88;5063281;28;19931;-71
2021/05/02 10:50:42;;;;;;;;;;;;;;;16.48;46.85;98372.09;5057144;28;19967;-71
2021/05/02 10:53:09;;;;;;;;;;;;;;;16.47;46.67;98382.47;5035327;28;19913;-71
2021/05/02 10:55:46;;;;;;;;;;;;;;;16.46;46.59;98389.25;5037918;28;19916;-70
2021/05/02 10:58:18;;;;;;;;;;;;;;;16.45;46.33;98406.44;5057681;28;20000;-71
2021/05/02 11:01:03;;;;;;;;;;;;;;;16.44;46.31;98394.47;5055697;28;19973;-70
2021/05/02 11:03:37;;;;;;;;;;;;;;;16.46;46.40;98396.84;5056523;28;19921;-70
2021/05/02 11:06:03;;;;;;;;;;;;;;;16.48;46.32;98395.22;5059435;28;20345;-71
2021/05/02 11:09:01;;;;;;;;;;;;;;;16.49;46.22;98398.81;5034161;28;19961;-71
2021/05/02 11:11:30;;;;;;;;;;;;;;;16.50;46.28;98406.75;4985000;28;19917;-72
2021/05/02 11:16:36;;;;;;;;;;;;;;;16.50;45.64;98403.19;5061736;28;19931;-70
2021/05/02 11:19:05;;;;;;;;;;;;;;;16.50;45.61;98409.56;5038766;28;19912;-70
2021/05/02 11:21:49;;;;;;;;;;;;;;;16.50;45.63;98417.94;5061944;28;20050;-71
2021/05/02 11:24:14;;;;;;;;;;;;;;;16.53;45.90;98416.28;5058707;28;19917;-71
2021/05/02 11:27:02;;;;;;;;;;;;;;;16.52;45.70;98418.28;5060843;28;19939;-71
2021/05/02 11:29:32;;;;;;;;;;;;;;;16.53;45.80;98421.88;5039981;28;19924;-71
2021/05/02 11:31:57;;;;;;;;;;;;;;;16.53;45.89;98419.88;5055811;28;19932;-71
2021/05/02 11:34:23;;;;;;;;;;;;;;;16.54;45.82;98423.44;5039032;28;19912;-70
2021/05/02 11:36:48;;;;;;;;;;;;;;;16.54;45.90;98424.25;5038939;28;19916;-71
2021/05/02 11:39:36;;;;;;;;;;;;;;;16.55;45.73;98423.06;5035357;28;19924;-71
2021/05/02 11:42:03;;;;;;;;;;;;;;;16.55;45.89;98430.66;5050019;28;19912;-70
2021/05/02 11:44:28;;;;;;;;;;;;;;;16.53;45.87;98425.47;5033923;28;19913;-70
2021/05/02 11:46:54;;;;;;;;;;;;;;;16.52;46.02;98429.47;5047313;28;19917;-70
2021/05/02 11:49:19;;;;;;;;;;;;;;;16.52;46.07;98434.25;5039125;28;19913;-70
2021/05/02 11:51:46;;;;;;;;;;;;;;;16.50;46.02;98437.47;5040545;28;20388;-70
2021/05/02 11:54:12;;;;;;;;;;;;;;;16.50;45.80;98442.28;5044448;28;19919;-70
2021/05/02 11:56:37;;;;;;;;;;;;;;;16.47;45.58;98440.31;5035510;28;19913;-70
2021/05/02 11:59:03;;;;;;;;;;;;;;;16.47;46.04;98443.13;5055354;28;20004;-71
2021/05/02 12:01:30;;;;;;;;;;;;;;;16.47;46.12;98457.09;5054863;28;19928;-71
2021/05/02 12:04:02;;;;;;;;;;;;;;;16.47;46.04;98457.09;5049525;28;19932;-70
2021/05/02 12:06:31;;;;;;;;;;;;;;;16.47;46.00;98457.09;5056949;28;19917;-71
2021/05/02 12:08:56;;;;;;;;;;;;;;;16.49;46.35;98460.25;5059840;28;19917;-71
2021/05/02 12:11:22;;;;;;;;;;;;;;;16.48;46.30;98455.88;5056811;28;19919;-72
2021/05/02 12:13:51;;;;;;;;;;;;;;;16.50;46.39;98464.63;5054896;28;19927;-71
2021/05/02 12:16:16;;;;;;;;;;;;;;;16.50;46.18;98473.00;5051059;28;19917;-71
2021/05/02 12:18:51;;;;;;;;;;;;;;;16.48;46.22;98458.66;5060488;28;19912;-70
2021/05/02 12:21:17;;;;;;;;;;;;;;;16.48;46.04;98462.25;5056738;28;19917;-71
2021/05/02 12:23:42;;;;;;;;;;;;;;;16.50;46.15;98462.63;5045372;28;19924;-71
2021/05/02 12:26:08;;;;;;;;;;;;;;;16.56;46.26;98465.75;5049071;28;20438;-74
2021/05/02 12:28:33;;;;;;;;;;;;;;;16.63;46.43;98467.63;5062538;28;19917;-71
2021/05/02 12:30:59;;;;;;;;;;;;;;;16.64;46.27;98469.25;5049836;28;19977;-70
2021/05/02 12:33:24;;;;;;;;;;;;;;;16.66;46.11;98469.59;5051905;28;19935;-71
2021/05/02 12:35:49;;;;;;;;;;;;;;;16.67;46.20;98460.00;5060173;28;20361;-70
2021/05/02 12:38:24;;;;;;;;;;;;;;;16.67;46.07;98460.00;5064296;28;20304;-70
2021/05/02 12:40:50;;;;;;;;;;;;;;;16.75;46.08;98462.31;5064634;28;20011;-70
2021/05/02 12:43:25;;;;;;;;;;;;;;;16.79;46.39;98465.06;5061770;28;19956;-71
2021/05/02 12:45:50;;;;;;;;;;;;;;;16.84;45.92;98470.97;5060666;28;19968;-71
2021/05/02 12:48:31;;;;;;;;;;;;;;;16.80;45.95;98467.44;5051817;28;19948;-71
2021/05/02 12:50:57;;;;;;;;;;;;;;;16.81;45.96;98473.81;5060625;28;20015;-71